Terminal Aerodrome Forecast
Issued by NWS Upton, NY

Home | Current Version | Previous Version | Text Only | Print | Product List | Glossary On
Versions: 1 2 3 4 5 6 7 8 9 10 11 12 13 14 15 16 17 18 19 20 21 22 23 24 25 26 27 28 29 30 31 32 33
963
FTUS41 KOKX 261128
TAFEWR
TAF
KEWR 261128Z 2612/2718 24008KT P6SM FEW070 SCT100
     FM261400 27009KT P6SM FEW030 SCT250
     FM262100 32009KT P6SM FEW050
     FM270000 33008KT P6SM SKC
     FM270700 01006KT P6SM SKC
     FM271500 04006KT P6SM SKC=

USA.gov is the U.S. government's official web portal to all federal, state and local government web resources and services.